Time;durP1;ratioP1;P1;durP2;ratioP2;P2;SDS_P1;SDS_P2;PMS_P1;PMS_P2;Temp;Humidity;BMP_temperature;BMP_pressure;BME280_temperature;BME280_humidity;BME280_pressure;Samples;Min_cycle;Max_cycle;Signal;HPM_P1;HPM_P2
2023/11/09 00:01:36;;;;;;;2.70;2.70;;;22.50;66.50;;;;;;5043986;28;20473;-66
2023/11/09 00:04:06;;;;;;;2.80;2.70;;;22.40;66.40;;;;;;5046780;28;20479;-66
2023/11/09 00:06:32;;;;;;;2.60;2.60;;;22.50;66.50;;;;;;5045264;28;20531;-66
2023/11/09 00:08:59;;;;;;;2.73;2.73;;;22.40;66.40;;;;;;5042939;28;20485;-66
2023/11/09 00:11:26;;;;;;;2.77;2.77;;;22.40;66.50;;;;;;5043540;28;20480;-65
2023/11/09 00:13:53;;;;;;;2.80;2.80;;;22.40;66.40;;;;;;5046724;28;20444;-65
2023/11/09 00:16:20;;;;;;;2.70;2.70;;;22.40;66.40;;;;;;5046666;28;20981;-65
2023/11/09 00:18:49;;;;;;;3.07;3.07;;;22.40;66.50;;;;;;5042570;28;20444;-66
2023/11/09 00:21:17;;;;;;;2.70;2.60;;;22.40;66.40;;;;;;5042925;28;20515;-65
2023/11/09 00:23:44;;;;;;;2.80;2.70;;;22.40;66.50;;;;;;5045773;28;20464;-66
2023/11/09 00:26:11;;;;;;;2.60;2.60;;;22.40;66.70;;;;;;5039951;28;20484;-66
2023/11/09 00:28:38;;;;;;;2.90;2.90;;;22.40;66.60;;;;;;5045021;28;20473;-66
2023/11/09 00:31:05;;;;;;;3.10;3.00;;;22.40;66.70;;;;;;5046049;28;20526;-66
2023/11/09 00:33:33;;;;;;;3.20;3.10;;;22.30;66.60;;;;;;5044797;28;20443;-66
2023/11/09 00:35:59;;;;;;;3.17;3.13;;;22.40;66.80;;;;;;5042282;28;20547;-66
2023/11/09 00:38:28;;;;;;;2.63;2.63;;;22.40;66.70;;;;;;5043182;28;20481;-66
2023/11/09 00:40:54;;;;;;;2.60;2.60;;;22.30;66.70;;;;;;5045927;28;20487;-66
2023/11/09 00:43:21;;;;;;;2.90;2.90;;;22.40;66.70;;;;;;5046075;28;20448;-66
2023/11/09 00:45:48;;;;;;;2.80;2.80;;;22.30;66.60;;;;;;5034041;28;20500;-66
2023/11/09 00:48:15;;;;;;;3.10;3.00;;;22.40;66.90;;;;;;5042584;28;20445;-66
2023/11/09 00:50:42;;;;;;;3.13;3.07;;;22.40;66.80;;;;;;5044727;28;20515;-66
2023/11/09 00:53:09;;;;;;;2.90;2.80;;;22.40;66.70;;;;;;5045951;28;20472;-66
2023/11/09 00:55:38;;;;;;;2.70;2.70;;;22.40;66.80;;;;;;5043510;28;20862;-66
2023/11/09 00:58:05;;;;;;;2.80;2.80;;;22.30;66.80;;;;;;5042370;28;20535;-66
2023/11/09 01:00:31;;;;;;;2.90;2.80;;;22.40;66.90;;;;;;5043220;28;20890;-66
2023/11/09 01:02:59;;;;;;;2.97;2.93;;;22.40;66.90;;;;;;5045726;28;20900;-66
2023/11/09 01:05:26;;;;;;;2.90;2.90;;;22.40;66.90;;;;;;5045295;28;20469;-66
2023/11/09 01:07:53;;;;;;;2.83;2.83;;;22.40;66.90;;;;;;5041587;28;20473;-66
2023/11/09 01:10:20;;;;;;;2.70;2.70;;;22.40;66.90;;;;;;5041497;28;20496;-66
2023/11/09 01:12:48;;;;;;;3.00;3.00;;;22.30;66.90;;;;;;5045363;28;20894;-66
2023/11/09 01:15:15;;;;;;;2.60;2.60;;;22.30;66.90;;;;;;5044944;28;20484;-66
2023/11/09 01:18:01;;;;;;;2.50;2.50;;;22.30;66.80;;;;;;5043052;28;20657;-66
2023/11/09 01:20:30;;;;;;;3.03;2.97;;;22.30;66.90;;;;;;5042796;28;20936;-66
2023/11/09 01:22:57;;;;;;;2.90;2.80;;;22.30;66.90;;;;;;5045399;28;20462;-66
2023/11/09 01:25:24;;;;;;;2.73;2.73;;;22.30;66.90;;;;;;5044655;28;20444;-65
2023/11/09 01:27:52;;;;;;;2.70;2.70;;;22.30;67.10;;;;;;5045353;28;20475;-65
2023/11/09 01:30:19;;;;;;;3.10;3.00;;;22.30;67.00;;;;;;5045385;28;20548;-66
2023/11/09 01:32:46;;;;;;;3.03;2.93;;;22.30;67.10;;;;;;5042147;28;20477;-66
2023/11/09 01:35:13;;;;;;;2.50;2.50;;;22.30;67.10;;;;;;5043222;28;20476;-66
2023/11/09 01:37:40;;;;;;;2.60;2.60;;;22.30;67.00;;;;;;5042977;28;20468;-66
2023/11/09 01:40:09;;;;;;;3.00;2.90;;;22.30;67.00;;;;;;5041836;28;20469;-66
2023/11/09 01:42:36;;;;;;;2.87;2.77;;;22.30;67.10;;;;;;5042704;28;20461;-66
2023/11/09 01:45:06;;;;;;;2.80;2.80;;;22.30;67.10;;;;;;5044288;28;20480;-66
2023/11/09 01:47:33;;;;;;;3.10;3.00;;;22.30;67.10;;;;;;5043943;28;20506;-66
2023/11/09 01:50:00;;;;;;;2.40;2.40;;;22.30;67.20;;;;;;5041796;28;20473;-66
2023/11/09 01:52:28;;;;;;;2.87;2.87;;;22.30;67.20;;;;;;5041269;28;20906;-66
2023/11/09 01:54:55;;;;;;;2.80;2.80;;;22.30;67.20;;;;;;5036488;28;20507;-66
2023/11/09 01:57:23;;;;;;;2.53;2.53;;;22.30;67.20;;;;;;5025564;28;21033;-66
2023/11/09 01:59:52;;;;;;;2.60;2.60;;;22.30;67.10;;;;;;5044389;28;20961;-66
2023/11/09 02:02:22;;;;;;;2.90;2.90;;;22.30;67.10;;;;;;5038759;28;20547;-66
2023/11/09 02:04:49;;;;;;;3.10;3.10;;;22.30;67.10;;;;;;5041247;28;20461;-66
2023/11/09 02:07:19;;;;;;;3.00;3.00;;;22.30;67.10;;;;;;5041399;28;20476;-66
2023/11/09 02:09:47;;;;;;;3.00;3.00;;;22.30;67.10;;;;;;5043746;28;20492;-66
2023/11/09 02:12:13;;;;;;;3.50;3.40;;;22.30;67.20;;;;;;5043681;28;21068;-66
2023/11/09 02:14:40;;;;;;;3.30;3.30;;;22.30;67.10;;;;;;5042354;28;20477;-66
2023/11/09 02:17:09;;;;;;;2.93;2.90;;;22.30;67.20;;;;;;5040922;28;20477;-66
2023/11/09 02:19:37;;;;;;;2.80;2.80;;;22.30;67.20;;;;;;5039198;28;20941;-66
2023/11/09 02:22:05;;;;;;;3.00;2.90;;;22.30;67.20;;;;;;5043171;28;20475;-66
2023/11/09 02:24:34;;;;;;;3.00;3.00;;;22.30;67.20;;;;;;5043448;28;20479;-66
2023/11/09 02:27:01;;;;;;;2.90;2.80;;;22.30;67.30;;;;;;5042385;28;20535;-66
2023/11/09 02:29:28;;;;;;;3.03;2.97;;;22.30;67.20;;;;;;5043858;28;20467;-66
2023/11/09 02:31:57;;;;;;;3.10;3.00;;;22.30;67.30;;;;;;5040619;28;20564;-66
2023/11/09 02:34:24;;;;;;;3.30;3.20;;;22.30;67.30;;;;;;5040937;28;20823;-66
2023/11/09 02:36:52;;;;;;;3.30;3.20;;;22.30;67.30;;;;;;5043238;28;20444;-66
2023/11/09 02:39:19;;;;;;;3.10;3.00;;;22.30;67.20;;;;;;5044299;28;20463;-66
2023/11/09 02:41:47;;;;;;;2.70;2.70;;;22.30;67.30;;;;;;5041425;28;20466;-66
2023/11/09 02:44:14;;;;;;;2.93;2.83;;;22.30;67.30;;;;;;5040710;28;20480;-66
2023/11/09 02:46:41;;;;;;;3.30;3.10;;;22.30;67.30;;;;;;5041718;28;20476;-66
2023/11/09 02:49:08;;;;;;;2.77;2.77;;;22.30;67.30;;;;;;5044013;28;20472;-66
2023/11/09 02:51:35;;;;;;;3.10;3.00;;;22.30;67.40;;;;;;5042815;28;20521;-66
2023/11/09 02:54:02;;;;;;;2.90;2.90;;;22.30;67.30;;;;;;5040547;28;20441;-66
2023/11/09 02:56:29;;;;;;;2.70;2.70;;;22.30;67.30;;;;;;5039658;28;20480;-66
2023/11/09 02:58:57;;;;;;;2.80;2.80;;;22.30;67.30;;;;;;5043714;28;20468;-67
2023/11/09 03:01:24;;;;;;;2.87;2.87;;;22.20;67.30;;;;;;5043825;28;20464;-67
2023/11/09 03:03:52;;;;;;;2.90;2.90;;;22.30;67.40;;;;;;5040623;28;20461;-67
2023/11/09 03:06:20;;;;;;;2.97;2.87;;;22.30;67.40;;;;;;5039869;28;20798;-66
2023/11/09 03:08:47;;;;;;;2.90;2.90;;;22.20;67.30;;;;;;5039501;28;20494;-66
2023/11/09 03:11:18;;;;;;;2.80;2.80;;;22.30;67.50;;;;;;5040010;28;20576;-67
2023/11/09 03:13:45;;;;;;;2.60;2.60;;;22.20;67.30;;;;;;5042019;28;20452;-66
2023/11/09 03:16:13;;;;;;;2.70;2.70;;;22.20;67.40;;;;;;5043261;28;20476;-66
2023/11/09 03:18:41;;;;;;;2.93;2.90;;;22.30;67.50;;;;;;5041700;28;20799;-66
2023/11/09 03:21:09;;;;;;;2.87;2.87;;;22.20;67.30;;;;;;5043389;28;20460;-66
2023/11/09 03:23:36;;;;;;;2.50;2.50;;;22.20;67.40;;;;;;5042205;28;20448;-66
2023/11/09 03:26:04;;;;;;;2.80;2.80;;;22.20;67.40;;;;;;5037298;28;21182;-66
2023/11/09 03:28:33;;;;;;;2.87;2.87;;;22.20;67.40;;;;;;5042909;28;20451;-66
2023/11/09 03:31:03;;;;;;;3.00;3.00;;;22.20;67.50;;;;;;5039577;28;20461;-66
2023/11/09 03:33:32;;;;;;;2.83;2.83;;;22.20;67.40;;;;;;5043019;28;20445;-66
2023/11/09 03:35:59;;;;;;;2.90;2.90;;;22.20;67.40;;;;;;5046931;28;20864;-66
2023/11/09 03:38:26;;;;;;;2.90;2.90;;;22.20;68.20;;;;;;5047402;28;20472;-66
2023/11/09 03:40:53;;;;;;;2.80;2.80;;;22.20;67.40;;;;;;5043981;28;22035;-66
2023/11/09 03:43:20;;;;;;;3.07;2.97;;;22.20;67.50;;;;;;5043859;28;20491;-66
2023/11/09 03:45:47;;;;;;;3.10;3.10;;;22.20;67.50;;;;;;5045302;28;20453;-66
2023/11/09 03:48:15;;;;;;;2.93;2.83;;;22.20;67.50;;;;;;5047175;28;20475;-66
2023/11/09 03:50:43;;;;;;;2.60;2.60;;;22.20;67.50;;;;;;5045278;28;20965;-66
2023/11/09 03:53:10;;;;;;;2.70;2.70;;;22.20;67.40;;;;;;5043645;28;20515;-66
2023/11/09 03:55:37;;;;;;;2.60;2.60;;;22.20;67.50;;;;;;5043734;28;20511;-66
2023/11/09 03:58:04;;;;;;;3.17;3.07;;;22.20;67.80;;;;;;5046962;28;20446;-66
2023/11/09 04:00:31;;;;;;;2.70;2.70;;;22.20;67.50;;;;;;5047062;28;20440;-66
2023/11/09 04:02:58;;;;;;;2.83;2.73;;;22.20;67.50;;;;;;5043203;28;20492;-66
2023/11/09 04:05:25;;;;;;;2.97;2.87;;;22.20;67.50;;;;;;5039698;28;20526;-66
2023/11/09 04:07:54;;;;;;;2.70;2.70;;;22.20;67.50;;;;;;5027288;28;20480;-66
2023/11/09 04:10:21;;;;;;;2.80;2.80;;;22.20;67.50;;;;;;5046769;28;20440;-66
2023/11/09 04:12:48;;;;;;;2.80;2.80;;;22.20;67.50;;;;;;5044076;28;20487;-66
2023/11/09 04:15:15;;;;;;;3.03;2.97;;;22.20;67.50;;;;;;5042518;28;20478;-66
2023/11/09 04:17:42;;;;;;;2.50;2.50;;;22.20;67.60;;;;;;5044624;28;20444;-66
2023/11/09 04:20:10;;;;;;;2.90;2.80;;;22.20;67.60;;;;;;5046522;28;20502;-66
2023/11/09 04:22:37;;;;;;;2.80;2.80;;;22.20;67.50;;;;;;5045570;28;20467;-66
2023/11/09 04:25:06;;;;;;;2.50;2.50;;;22.20;67.60;;;;;;5042531;28;20484;-66
2023/11/09 04:27:36;;;;;;;2.50;2.50;;;22.20;67.60;;;;;;5043173;28;20480;-66
2023/11/09 04:30:05;;;;;;;2.80;2.80;;;22.20;67.60;;;;;;5046455;28;20873;-66
2023/11/09 04:32:32;;;;;;;3.10;3.00;;;22.20;67.60;;;;;;5045991;28;20498;-66
2023/11/09 04:34:59;;;;;;;2.97;2.97;;;22.20;67.70;;;;;;5033180;28;20447;-66
2023/11/09 04:37:26;;;;;;;3.13;3.13;;;22.20;67.60;;;;;;5039965;28;20488;-66
2023/11/09 04:39:58;;;;;;;3.00;3.00;;;22.20;67.70;;;;;;5044250;28;20444;-66
2023/11/09 04:42:29;;;;;;;3.13;3.13;;;22.20;67.70;;;;;;5042688;28;20465;-66
2023/11/09 04:44:57;;;;;;;3.00;2.90;;;22.20;67.60;;;;;;5043795;28;20530;-66
2023/11/09 04:47:27;;;;;;;2.90;2.80;;;22.20;67.60;;;;;;5046031;28;20502;-66
2023/11/09 04:50:00;;;;;;;2.70;2.70;;;22.20;67.80;;;;;;5043076;28;20452;-66
2023/11/09 04:52:29;;;;;;;2.97;2.97;;;22.20;67.90;;;;;;5042580;28;20480;-66
2023/11/09 04:55:10;;;;;;;3.00;2.90;;;22.20;67.70;;;;;;5048215;28;20449;-66
2023/11/09 05:08:39;;;;;;;3.10;3.10;;;22.20;67.90;;;;;;5044719;28;20431;-66
2023/11/09 05:11:09;;;;;;;3.20;3.20;;;22.20;67.90;;;;;;5042009;28;20457;-66
2023/11/09 05:13:37;;;;;;;3.30;3.27;;;22.20;68.00;;;;;;5041505;28;21003;-66
2023/11/09 05:16:04;;;;;;;3.10;3.10;;;22.20;68.10;;;;;;5045524;28;20468;-66
2023/11/09 05:18:31;;;;;;;3.30;3.30;;;22.20;68.00;;;;;;5045438;28;20972;-66
2023/11/09 05:20:58;;;;;;;3.10;3.10;;;22.20;68.10;;;;;;5041861;28;20496;-66
2023/11/09 05:23:25;;;;;;;3.60;3.50;;;22.20;68.10;;;;;;5042086;28;20441;-66
2023/11/09 05:25:52;;;;;;;3.20;3.20;;;22.20;68.10;;;;;;5034871;28;20445;-66
2023/11/09 05:28:19;;;;;;;3.10;3.10;;;22.20;68.00;;;;;;5040786;28;20468;-66
2023/11/09 05:30:50;;;;;;;6.20;3.33;;;22.20;68.10;;;;;;5043327;28;20880;-66
2023/11/09 05:33:18;;;;;;;3.10;3.10;;;22.20;68.00;;;;;;5041632;28;20507;-66
2023/11/09 05:35:45;;;;;;;3.77;3.77;;;22.20;68.10;;;;;;5042580;28;20455;-66
2023/11/09 05:38:12;;;;;;;4.13;4.07;;;22.20;68.00;;;;;;5045178;28;20513;-66
2023/11/09 05:40:39;;;;;;;3.70;3.50;;;22.20;68.00;;;;;;5044207;28;20472;-66
2023/11/09 05:43:09;;;;;;;6.03;5.53;;;22.20;68.20;;;;;;5041582;28;20469;-66
2023/11/09 05:45:36;;;;;;;3.80;3.50;;;22.20;68.30;;;;;;5034100;28;20452;-66
2023/11/09 05:48:05;;;;;;;3.77;3.57;;;22.20;68.60;;;;;;5041691;28;20856;-66
2023/11/09 05:50:32;;;;;;;4.57;4.27;;;22.20;68.80;;;;;;5029045;28;20529;-67
2023/11/09 05:53:00;;;;;;;3.97;3.87;;;22.20;70.00;;;;;;5044340;28;20476;-68
2023/11/09 05:55:29;;;;;;;4.40;4.10;;;22.20;70.40;;;;;;5044208;28;20444;-68
2023/11/09 05:57:57;;;;;;;4.33;4.13;;;22.20;69.90;;;;;;5041518;28;20445;-68
2023/11/09 06:00:24;;;;;;;3.70;3.40;;;22.20;69.80;;;;;;5041065;28;20511;-68
2023/11/09 06:02:51;;;;;;;6.83;4.73;;;22.20;69.80;;;;;;5042967;28;20465;-68
2023/11/09 06:05:20;;;;;;;4.07;3.97;;;22.20;69.50;;;;;;5044269;28;20478;-68
2023/11/09 06:07:47;;;;;;;3.93;3.63;;;22.20;69.40;;;;;;5042517;28;20440;-68
2023/11/09 06:10:14;;;;;;;6.13;3.43;;;22.20;69.30;;;;;;5040763;28;20449;-68
2023/11/09 06:12:41;;;;;;;4.40;3.40;;;22.20;69.20;;;;;;5041214;28;20485;-68
2023/11/09 06:15:09;;;;;;;5.10;3.50;;;22.20;69.10;;;;;;5044150;28;20454;-68
2023/11/09 06:17:36;;;;;;;3.50;3.43;;;22.20;69.00;;;;;;5044024;28;20875;-68
2023/11/09 06:20:05;;;;;;;3.60;3.30;;;22.20;69.00;;;;;;5040675;28;20453;-68
2023/11/09 06:22:33;;;;;;;4.17;3.87;;;22.20;68.90;;;;;;5040480;28;20539;-68
2023/11/09 06:25:00;;;;;;;4.57;4.47;;;22.20;68.80;;;;;;5043770;28;20448;-68
2023/11/09 06:27:28;;;;;;;4.70;4.37;;;22.20;68.80;;;;;;5043982;28;20531;-68
2023/11/09 06:29:56;;;;;;;4.63;4.33;;;22.20;68.70;;;;;;5041112;28;20455;-68
2023/11/09 06:32:23;;;;;;;4.83;4.53;;;22.20;68.60;;;;;;5040198;28;20485;-68
2023/11/09 06:34:49;;;;;;;4.40;4.20;;;22.20;68.70;;;;;;5042141;28;20477;-68
2023/11/09 06:37:16;;;;;;;5.50;5.13;;;22.20;68.60;;;;;;5043646;28;20475;-68
2023/11/09 06:39:48;;;;;;;4.50;4.30;;;22.20;68.60;;;;;;5042533;28;20478;-68
2023/11/09 06:42:15;;;;;;;3.90;3.80;;;22.20;68.50;;;;;;5040312;28;20688;-68
2023/11/09 06:44:44;;;;;;;4.07;3.97;;;22.20;68.50;;;;;;5040987;28;20449;-68
2023/11/09 06:47:12;;;;;;;4.40;4.30;;;22.20;68.50;;;;;;5044159;28;20476;-68
2023/11/09 06:49:39;;;;;;;3.80;3.70;;;22.20;68.50;;;;;;5043547;28;20887;-68
2023/11/09 06:52:06;;;;;;;3.80;3.70;;;22.20;68.40;;;;;;5040418;28;20504;-68
2023/11/09 06:54:33;;;;;;;4.10;4.10;;;22.20;68.40;;;;;;5040429;28;20472;-68
2023/11/09 06:57:02;;;;;;;4.10;4.00;;;22.20;68.30;;;;;;5043513;28;20479;-68
2023/11/09 06:59:29;;;;;;;3.90;3.80;;;22.20;68.40;;;;;;5044679;28;20922;-68
2023/11/09 07:01:56;;;;;;;4.00;3.60;;;22.20;68.30;;;;;;5040623;28;20527;-68
2023/11/09 07:04:23;;;;;;;3.57;3.47;;;22.20;68.30;;;;;;5039878;28;20444;-68
2023/11/09 07:06:50;;;;;;;3.70;3.60;;;22.20;68.30;;;;;;5041496;28;20449;-68
2023/11/09 07:09:18;;;;;;;3.50;3.33;;;22.20;68.30;;;;;;5043515;28;20444;-68
2023/11/09 07:11:47;;;;;;;3.90;3.80;;;22.20;68.30;;;;;;5041984;28;21017;-68
2023/11/09 07:14:16;;;;;;;3.50;3.40;;;22.20;68.30;;;;;;5039793;28;20487;-68
2023/11/09 07:16:43;;;;;;;3.60;3.50;;;22.20;68.30;;;;;;5040246;28;20449;-68
2023/11/09 07:19:10;;;;;;;4.30;4.10;;;22.20;68.30;;;;;;5043156;28;20578;-68
2023/11/09 07:21:37;;;;;;;3.00;3.00;;;22.20;68.30;;;;;;5043005;28;20968;-67
2023/11/09 07:24:05;;;;;;;3.30;3.30;;;22.20;68.20;;;;;;5031556;28;20929;-68
2023/11/09 07:26:31;;;;;;;3.43;3.30;;;22.20;68.30;;;;;;5039653;28;20441;-68
2023/11/09 07:28:58;;;;;;;3.60;3.40;;;22.20;68.20;;;;;;5042431;28;20487;-68
2023/11/09 07:31:27;;;;;;;3.50;3.40;;;22.20;68.20;;;;;;5042856;28;20460;-68
2023/11/09 07:33:54;;;;;;;3.60;3.30;;;22.20;68.20;;;;;;5040738;28;20917;-68
2023/11/09 07:36:21;;;;;;;3.83;3.73;;;22.20;68.20;;;;;;5039416;28;20448;-68
2023/11/09 07:38:48;;;;;;;3.83;3.63;;;22.20;68.20;;;;;;5040723;28;20472;-68
2023/11/09 07:41:15;;;;;;;3.60;3.50;;;22.20;68.20;;;;;;5042748;28;20503;-68
2023/11/09 07:43:43;;;;;;;3.33;3.33;;;22.20;68.10;;;;;;5042216;28;20444;-68
2023/11/09 07:46:10;;;;;;;3.73;3.63;;;22.20;68.10;;;;;;5039463;28;20452;-68
2023/11/09 07:48:38;;;;;;;3.03;3.03;;;22.20;68.10;;;;;;5039487;28;20452;-68
2023/11/09 07:51:06;;;;;;;4.67;4.47;;;22.20;68.10;;;;;;5031248;28;20496;-68
2023/11/09 07:53:33;;;;;;;3.97;3.83;;;22.20;68.10;;;;;;5039319;28;21023;-68
2023/11/09 07:56:00;;;;;;;3.80;3.60;;;22.20;68.00;;;;;;5042197;28;20432;-68
2023/11/09 07:58:27;;;;;;;3.50;3.50;;;22.20;68.00;;;;;;5042815;28;20479;-68
2023/11/09 08:00:54;;;;;;;4.07;3.87;;;22.20;68.10;;;;;;5040405;28;20502;-68
2023/11/09 08:03:21;;;;;;;3.47;3.47;;;22.20;67.90;;;;;;5039238;28;20480;-68
2023/11/09 08:05:50;;;;;;;3.20;3.20;;;22.20;67.90;;;;;;5040423;28;20484;-68
2023/11/09 08:08:17;;;;;;;4.17;4.07;;;22.20;68.00;;;;;;5042688;28;20463;-68
2023/11/09 08:10:44;;;;;;;4.00;3.90;;;22.20;67.90;;;;;;5041864;28;20816;-68
2023/11/09 08:13:12;;;;;;;4.17;4.07;;;22.20;67.90;;;;;;5039125;28;20508;-68
2023/11/09 08:15:39;;;;;;;4.13;4.03;;;22.20;67.80;;;;;;5039159;28;20528;-68
2023/11/09 08:18:07;;;;;;;4.00;3.90;;;22.20;68.00;;;;;;5031867;28;20476;-68
2023/11/09 08:20:37;;;;;;;3.50;3.40;;;22.20;67.80;;;;;;5042938;28;20532;-68
2023/11/09 08:23:05;;;;;;;3.73;3.63;;;22.10;67.80;;;;;;5045978;28;20894;-68
2023/11/09 08:25:32;;;;;;;3.97;3.87;;;22.10;67.80;;;;;;5046265;28;20479;-68
2023/11/09 08:27:58;;;;;;;3.83;3.83;;;22.10;68.50;;;;;;5043543;28;20472;-69
2023/11/09 08:30:27;;;;;;;4.10;4.00;;;22.20;68.00;;;;;;5042640;28;20469;-68
2023/11/09 08:32:55;;;;;;;3.93;3.77;;;22.20;67.90;;;;;;5044256;28;20542;-68
2023/11/09 08:35:24;;;;;;;3.50;3.50;;;22.20;67.90;;;;;;5045988;28;20558;-68
2023/11/09 08:37:52;;;;;;;4.30;4.20;;;22.20;68.00;;;;;;5044556;28;20444;-68
2023/11/09 08:40:27;;;;;;;4.10;4.00;;;22.20;68.00;;;;;;5042801;28;20448;-68
2023/11/09 08:42:55;;;;;;;3.70;3.63;;;22.20;68.00;;;;;;5044337;28;20886;-68
2023/11/09 08:45:24;;;;;;;4.10;4.00;;;22.20;68.20;;;;;;5045862;28;20443;-68
2023/11/09 08:47:52;;;;;;;3.90;3.80;;;22.20;68.10;;;;;;5044330;28;20452;-68
2023/11/09 08:50:20;;;;;;;4.33;4.13;;;22.20;68.10;;;;;;5042304;28;20451;-68
2023/11/09 08:52:48;;;;;;;3.80;3.70;;;22.20;68.10;;;;;;5042851;28;20468;-68
2023/11/09 08:55:16;;;;;;;4.17;4.07;;;22.20;68.30;;;;;;5045846;28;20478;-68
2023/11/09 08:57:44;;;;;;;3.80;3.80;;;22.20;68.20;;;;;;5045366;28;20463;-68
2023/11/09 09:00:12;;;;;;;4.30;4.20;;;22.20;68.10;;;;;;5042209;28;20442;-69
2023/11/09 09:02:45;;;;;;;4.20;4.00;;;22.20;68.10;;;;;;5069899;22;20994;-63
2023/11/09 09:05:15;;;;;;;4.03;3.93;;;22.30;68.20;;;;;;5034573;28;20955;-63
2023/11/09 09:07:42;;;;;;;3.37;3.37;;;22.20;68.00;;;;;;5042233;28;20829;-64
2023/11/09 09:10:12;;;;;;;3.50;3.40;;;22.20;68.10;;;;;;5034205;28;20465;-64
2023/11/09 09:12:40;;;;;;;3.70;3.70;;;22.20;68.00;;;;;;5041882;28;20591;-64
2023/11/09 09:15:13;;;;;;;3.60;3.60;;;22.20;68.00;;;;;;5045032;28;20504;-64
2023/11/09 09:17:41;;;;;;;3.60;3.60;;;22.20;68.00;;;;;;5045355;28;20449;-63
2023/11/09 09:20:12;;;;;;;3.70;3.70;;;22.20;68.00;;;;;;5033760;28;20448;-64
2023/11/09 09:22:40;;;;;;;3.87;3.77;;;22.20;68.00;;;;;;5041917;28;20836;-64
2023/11/09 09:25:10;;;;;;;3.50;3.40;;;22.20;67.90;;;;;;5044898;28;20880;-63
2023/11/09 09:27:40;;;;;;;3.60;3.60;;;22.20;68.00;;;;;;5045137;28;20440;-64
2023/11/09 09:30:12;;;;;;;4.13;4.03;;;22.20;67.90;;;;;;5041319;28;20445;-64
2023/11/09 09:32:40;;;;;;;5.80;5.60;;;22.20;67.90;;;;;;5041578;28;20493;-64
2023/11/09 09:35:10;;;;;;;3.97;3.87;;;22.20;67.90;;;;;;5044559;28;20567;-64
2023/11/09 09:37:37;;;;;;;4.00;4.00;;;22.20;67.90;;;;;;5045015;28;20797;-65
2023/11/09 09:40:15;;;;;;;4.40;4.30;;;22.20;67.80;;;;;;5041780;28;20445;-64
2023/11/09 09:42:46;;;;;;;4.20;4.10;;;22.20;67.80;;;;;;5041246;28;20471;-64
2023/11/09 09:45:19;;;;;;;4.50;4.30;;;22.20;67.80;;;;;;5033798;28;20525;-64
2023/11/09 09:47:48;;;;;;;4.60;4.47;;;22.20;67.80;;;;;;5041512;28;20480;-65
2023/11/09 09:50:16;;;;;;;4.40;4.30;;;22.20;67.90;;;;;;5044555;28;20796;-65
2023/11/09 09:52:46;;;;;;;4.70;4.60;;;22.20;67.80;;;;;;5044577;28;20747;-64
2023/11/09 09:55:15;;;;;;;4.83;4.73;;;22.20;68.00;;;;;;5041051;28;20485;-65
2023/11/09 09:57:44;;;;;;;4.40;4.37;;;22.20;67.70;;;;;;5041110;28;20495;-64
2023/11/09 10:00:17;;;;;;;4.50;4.37;;;22.20;67.70;;;;;;5033144;28;20475;-63
2023/11/09 10:02:46;;;;;;;4.30;4.30;;;22.20;67.70;;;;;;5040889;28;20479;-64
2023/11/09 10:05:13;;;;;;;4.40;4.30;;;22.20;67.70;;;;;;5033351;28;20959;-64
2023/11/09 10:08:01;;;;;;;4.50;4.40;;;22.20;67.70;;;;;;5040941;28;20882;-64
2023/11/09 10:10:32;;;;;;;4.30;4.20;;;22.20;67.80;;;;;;5035196;28;21014;-64
2023/11/09 10:12:59;;;;;;;4.20;4.00;;;22.20;67.70;;;;;;5042608;28;20558;-63
2023/11/09 10:15:27;;;;;;;4.27;4.07;;;22.20;67.70;;;;;;5044154;28;20508;-64
2023/11/09 10:17:56;;;;;;;4.40;4.23;;;22.20;67.70;;;;;;5042674;28;20472;-65
2023/11/09 10:20:24;;;;;;;4.50;4.40;;;22.20;67.80;;;;;;5040674;28;20499;-64
2023/11/09 10:22:53;;;;;;;4.40;4.20;;;22.20;67.80;;;;;;5048720;28;20893;-67
2023/11/09 10:25:24;;;;;;;4.23;4.20;;;22.20;67.80;;;;;;5040649;28;20536;-64
2023/11/09 10:27:50;;;;;;;4.10;4.00;;;22.20;67.80;;;;;;5041230;28;20442;-63
2023/11/09 10:30:17;;;;;;;4.60;4.43;;;22.20;67.90;;;;;;5044056;28;20440;-63
2023/11/09 10:32:46;;;;;;;4.00;4.00;;;22.20;67.90;;;;;;5043864;28;21005;-64
2023/11/09 10:35:16;;;;;;;3.80;3.80;;;22.20;67.80;;;;;;5032530;28;20481;-64
2023/11/09 10:37:44;;;;;;;3.90;3.90;;;22.30;67.90;;;;;;5040388;28;20453;-64
2023/11/09 10:40:13;;;;;;;3.80;3.80;;;22.20;67.80;;;;;;5040328;28;20995;-64
2023/11/09 10:42:41;;;;;;;3.80;3.70;;;22.30;68.00;;;;;;5033187;28;20837;-64
2023/11/09 10:45:10;;;;;;;3.87;3.83;;;22.30;67.90;;;;;;5043513;28;20435;-66
2023/11/09 10:47:40;;;;;;;3.80;3.70;;;22.30;67.90;;;;;;5043750;28;20467;-64
2023/11/09 10:50:13;;;;;;;3.80;3.80;;;22.30;67.90;;;;;;5039292;28;20445;-64
2023/11/09 10:52:44;;;;;;;4.20;4.10;;;22.30;67.80;;;;;;5039425;28;20481;-71
2023/11/09 10:55:16;;;;;;;4.63;4.43;;;22.30;71.30;;;;;;5043511;28;20559;-67
2023/11/09 10:57:47;;;;;;;4.87;4.60;;;22.40;71.10;;;;;;5036251;28;20460;-68
2023/11/09 11:00:31;;;;;;;4.60;4.40;;;22.50;70.80;;;;;;5032607;28;20445;-68
2023/11/09 11:03:07;;;;;;;4.27;4.17;;;22.50;70.10;;;;;;5046759;28;20559;-64
2023/11/09 11:05:40;;;;;;;4.67;4.27;;;22.60;70.80;;;;;;5040528;28;20463;-68
2023/11/09 11:08:15;;;;;;;5.67;5.13;;;22.60;71.40;;;;;;5043115;28;20444;-69
2023/11/09 11:10:51;;;;;;;7.73;6.70;;;22.70;71.10;;;;;;5043969;28;20531;-67
2023/11/09 11:13:19;;;;;;;8.50;7.37;;;22.60;72.40;;;;;;5029079;28;20907;-67
2023/11/09 11:16:10;;;;;;;9.47;8.90;;;22.70;72.00;;;;;;5043423;28;20476;-66
2023/11/09 11:18:52;;;;;;;10.07;9.47;;;22.70;72.10;;;;;;5035360;28;20442;-66
2023/11/09 11:21:41;;;;;;;9.73;9.13;;;22.80;72.60;;;;;;5033145;28;20527;-70
2023/11/09 11:24:37;;;;;;;12.43;11.43;;;22.70;74.70;;;;;;5036902;28;20457;-69
2023/11/09 11:27:10;;;;;;;10.90;10.10;;;22.80;73.70;;;;;;5042374;28;20476;-67
2023/11/09 11:29:39;;;;;;;9.03;8.50;;;22.80;74.90;;;;;;5043808;28;20942;-68
2023/11/09 11:32:09;;;;;;;6.43;6.03;;;22.80;75.00;;;;;;5039719;28;20486;-69
2023/11/09 11:34:46;;;;;;;8.17;7.50;;;22.80;74.90;;;;;;5037465;28;20492;-68
2023/11/09 11:37:16;;;;;;;7.50;7.10;;;22.70;73.90;;;;;;5038502;28;20445;-69
2023/11/09 11:39:45;;;;;;;8.10;7.40;;;22.60;73.40;;;;;;5039563;28;20540;-69
2023/11/09 11:42:19;;;;;;;6.77;6.27;;;22.60;73.10;;;;;;5042490;28;20544;-69
2023/11/09 11:44:54;;;;;;;5.90;5.70;;;22.60;72.90;;;;;;5042976;28;20435;-67
2023/11/09 11:47:22;;;;;;;6.20;5.93;;;22.60;72.70;;;;;;5032450;28;20471;-69
2023/11/09 11:49:50;;;;;;;6.87;6.47;;;22.60;72.50;;;;;;5039453;28;20452;-70
2023/11/09 11:52:21;;;;;;;6.07;5.70;;;22.60;72.40;;;;;;5042943;28;20456;-70
2023/11/09 11:54:51;;;;;;;6.60;6.30;;;22.60;72.20;;;;;;5046439;28;20503;-70
2023/11/09 11:57:18;;;;;;;7.20;6.60;;;22.60;73.20;;;;;;5035839;28;20524;-70
2023/11/09 12:00:02;;;;;;;5.87;5.50;;;22.60;71.90;;;;;;5043403;28;20606;-70
2023/11/09 12:02:29;;;;;;;5.90;5.70;;;22.60;71.80;;;;;;5037072;28;20839;-70
2023/11/09 12:04:57;;;;;;;6.43;5.90;;;22.60;71.60;;;;;;5044269;28;20465;-69
2023/11/09 12:07:26;;;;;;;5.53;5.23;;;22.50;71.30;;;;;;5046625;28;20440;-67
2023/11/09 12:09:57;;;;;;;5.27;5.17;;;22.60;71.40;;;;;;5045836;28;20839;-67
2023/11/09 12:12:26;;;;;;;5.50;5.20;;;22.50;71.20;;;;;;5043070;28;20461;-67
2023/11/09 12:14:54;;;;;;;5.43;5.13;;;22.50;71.40;;;;;;5043420;28;20560;-68
2023/11/09 12:17:23;;;;;;;5.80;5.60;;;22.50;71.10;;;;;;5046379;28;20851;-67
2023/11/09 12:19:51;;;;;;;5.40;5.20;;;22.50;71.20;;;;;;5046048;28;20460;-68
2023/11/09 12:22:18;;;;;;;5.07;4.87;;;22.50;70.90;;;;;;5042833;28;20980;-69
2023/11/09 12:24:45;;;;;;;5.90;5.50;;;22.60;70.80;;;;;;5042866;28;20441;-68
2023/11/09 12:27:13;;;;;;;5.70;5.30;;;22.50;71.10;;;;;;5045891;28;20566;-68
2023/11/09 12:29:42;;;;;;;5.10;4.90;;;22.50;70.80;;;;;;5046300;28;20518;-67
2023/11/09 12:32:09;;;;;;;5.50;5.30;;;22.50;70.70;;;;;;5043720;28;20470;-67
2023/11/09 12:34:41;;;;;;;5.67;5.40;;;22.50;70.80;;;;;;5042591;28;20484;-68
2023/11/09 12:37:15;;;;;;;5.37;5.17;;;22.50;70.60;;;;;;5045053;28;20445;-67
2023/11/09 12:39:42;;;;;;;5.10;5.00;;;22.50;70.40;;;;;;5046111;28;20445;-68
2023/11/09 12:42:11;;;;;;;4.90;4.70;;;22.50;70.50;;;;;;5043108;28;20468;-66
2023/11/09 12:44:42;;;;;;;4.93;4.83;;;22.50;70.80;;;;;;5042368;28;20495;-68
2023/11/09 12:47:17;;;;;;;5.03;4.83;;;22.50;70.30;;;;;;5044991;28;20441;-67
2023/11/09 12:49:47;;;;;;;5.33;5.17;;;22.50;70.30;;;;;;5046036;28;20472;-68
2023/11/09 12:52:17;;;;;;;4.73;4.53;;;22.50;70.40;;;;;;5042302;28;20472;-69
2023/11/09 12:54:45;;;;;;;4.97;4.67;;;22.40;70.50;;;;;;5042302;28;20559;-67
2023/11/09 12:57:16;;;;;;;5.00;4.90;;;22.40;70.50;;;;;;5045255;28;20445;-67
2023/11/09 12:59:46;;;;;;;4.90;4.60;;;22.40;70.10;;;;;;5045759;28;20448;-67
2023/11/09 13:02:18;;;;;;;4.50;4.40;;;22.40;70.50;;;;;;5042232;28;20523;-68
2023/11/09 13:04:48;;;;;;;4.43;4.33;;;22.40;70.00;;;;;;5041188;28;20528;-67